Date,TemperatureHighF,TemperatureAvgF,TemperatureLowF,DewpointHighF,DewpointAvgF,DewpointLowF,HumidityHigh,HumidityAvg,HumidityLow,PressureMaxIn,PressureMinIn,WindSpeedMaxMPH,WindSpeedAvgMPH,GustSpeedMaxMPH,PrecipitationSumIn
2013-2-1,70,54,40,42,37,32,84,57,26,30.35,30.23,7,2,17,0.01
2013-2-2,73,54,42,52,43,36,85,68,39,30.29,30.16,6,1,12,0.00
2013-2-3,74,59,48,56,45,33,85,64,25,30.23,30.10,6,1,16,0.00
2013-2-4,73,57,42,50,42,23,88,65,16,30.17,30.04,6,1,13,0.00
2013-2-5,82,63,46,57,51,42,85,67,38,30.10,30.01,5,1,13,0.00
2013-2-6,82,68,54,64,58,50,85,72,46,30.13,30.03,3,0,11,0.00
2013-2-7,82,71,60,65,62,56,86,75,53,30.08,29.94,7,2,16,0.01
2013-2-8,85,72,61,68,61,53,86,71,36,30.09,29.92,8,2,16,0.01
2013-2-9,79,66,54,62,57,50,87,73,48,30.18,30.06,8,2,16,0.00
2013-2-10,82,70,59,63,60,54,86,73,47,30.25,30.14,8,3,17,0.00
2013-2-11,83,71,63,67,62,58,85,75,52,30.21,30.09,8,3,16,0.00
2013-2-12,82,72,61,70,65,57,86,80,68,30.13,29.98,9,2,22,0.00
2013-2-13,83,76,66,72,69,56,86,80,67,30.01,29.91,9,3,21,0.00
2013-2-14,71,63,59,66,58,55,87,84,73,30.04,29.93,8,1,15,2.78
2013-2-15,69,62,59,62,58,55,87,85,75,30.08,29.96,4,0,7,0.24
2013-2-16,70,61,54,57,52,43,86,73,50,30.12,29.94,14,3,24,0.02
2013-2-17,59,50,39,43,29,21,79,47,24,30.35,30.12,7,1,17,0.00
2013-2-18,70,53,36,50,40,29,84,63,43,30.35,30.23,7,1,14,0.00
2013-2-19,77,64,50,63,56,46,86,76,59,30.23,30.10,6,1,16,0.00
2013-2-20,83,67,54,66,57,50,88,73,43,30.13,30.01,5,0,11,0.00
2013-2-21,84,70,59,67,61,54,87,76,54,30.11,30.01,4,0,10,0.00
2013-2-22,84,72,59,71,64,55,87,77,58,30.10,30.00,7,2,17,0.00
2013-2-23,82,74,67,73,68,62,87,82,72,30.04,29.93,13,3,25,0.00
2013-2-24,85,75,68,72,68,64,87,79,57,30.00,29.92,7,1,15,0.00
2013-2-25,83,74,64,73,67,60,88,81,67,29.94,29.80,8,2,18,0.00
2013-2-26,82,74,66,74,69,61,86,83,75,29.91,29.76,15,4,32,0.09
2013-2-27,77,68,62,64,61,57,88,77,61,29.99,29.88,4,1,10,0.01
2013-2-28,75,64,58,58,56,54,85,74,50,30.04,29.93,8,1,15,0.01